createdAt,value
2023-03-17T00:01:38.490Z,0.10
2023-03-17T00:04:05.866Z,0.00
2023-03-17T00:06:34.017Z,0.00
2023-03-17T00:09:01.319Z,0.00
2023-03-17T00:11:28.315Z,0.00
2023-03-17T00:13:54.956Z,0.00
2023-03-17T00:16:25.844Z,0.00
2023-03-17T00:18:53.767Z,0.00
2023-03-17T00:21:24.787Z,0.00
2023-03-17T00:23:51.990Z,-0.10
2023-03-17T00:26:19.611Z,-0.10
2023-03-17T00:28:46.622Z,-0.10
2023-03-17T00:31:15.336Z,-0.10
2023-03-17T00:33:43.380Z,-0.10
2023-03-17T00:36:12.845Z,-0.20
2023-03-17T00:38:39.644Z,-0.20
2023-03-17T00:41:06.485Z,-0.20
2023-03-17T00:43:33.444Z,-0.20
2023-03-17T00:46:00.245Z,-0.20
2023-03-17T00:48:28.526Z,-0.30
2023-03-17T00:50:56.053Z,-0.30
2023-03-17T00:53:22.683Z,-0.30
2023-03-17T00:55:49.958Z,-0.30
2023-03-17T00:58:20.292Z,-0.40
2023-03-17T01:00:47.430Z,-0.40
2023-03-17T01:03:14.574Z,-0.40
2023-03-17T01:05:41.725Z,-0.40
2023-03-17T01:08:09.132Z,-0.50
2023-03-17T01:10:37.234Z,-0.50
2023-03-17T01:13:04.357Z,-0.50
2023-03-17T01:15:31.675Z,-0.50
2023-03-17T01:17:59.480Z,-0.60
2023-03-17T01:20:28.369Z,-0.60
2023-03-17T01:22:55.273Z,-0.60
2023-03-17T01:25:22.322Z,-0.60
2023-03-17T01:27:49.276Z,-0.70
2023-03-17T01:30:29.619Z,-0.70
2023-03-17T01:32:57.120Z,-0.80
2023-03-17T01:35:24.641Z,-0.80
2023-03-17T01:37:51.351Z,-0.80
2023-03-17T01:40:22.786Z,-0.80
2023-03-17T01:42:52.588Z,-0.90
2023-03-17T01:45:38.636Z,-0.90
2023-03-17T01:48:05.780Z,-0.90
2023-03-17T01:50:32.570Z,-1.00
2023-03-17T01:52:59.428Z,-1.00
2023-03-17T01:55:26.361Z,-1.00
2023-03-17T01:57:54.417Z,-1.10
2023-03-17T02:00:24.388Z,-1.10
2023-03-17T02:02:52.261Z,-1.10
2023-03-17T02:05:21.513Z,-1.10
2023-03-17T02:07:48.592Z,-1.10
2023-03-17T02:10:17.528Z,-1.10
2023-03-17T02:12:45.911Z,-1.10
2023-03-17T02:15:12.805Z,-1.10
2023-03-17T02:17:39.620Z,-1.20
2023-03-17T02:20:15.608Z,-1.20
2023-03-17T02:22:43.695Z,-1.20
2023-03-17T02:25:10.441Z,-1.20
2023-03-17T02:27:41.815Z,-1.20
2023-03-17T02:30:14.531Z,-1.30
2023-03-17T02:32:41.203Z,-1.30
2023-03-17T02:35:08.781Z,-1.30
2023-03-17T02:37:35.886Z,-1.30
2023-03-17T02:40:02.878Z,-1.30
2023-03-17T02:42:29.668Z,-1.40
2023-03-17T02:44:56.312Z,-1.30
2023-03-17T02:47:24.381Z,-1.30
2023-03-17T02:49:53.400Z,-1.40
2023-03-17T02:52:20.309Z,-1.40
2023-03-17T02:54:46.927Z,-1.40
2023-03-17T02:57:13.596Z,-1.40
2023-03-17T02:59:40.352Z,-1.50
2023-03-17T03:02:07.305Z,-1.40
2023-03-17T03:04:34.197Z,-1.50
2023-03-17T03:07:00.826Z,-1.50
2023-03-17T03:09:27.696Z,-1.50
2023-03-17T03:11:54.282Z,-1.50
2023-03-17T03:14:21.141Z,-1.50
2023-03-17T03:16:48.061Z,-1.60
2023-03-17T03:19:14.720Z,-1.60
2023-03-17T03:21:42.268Z,-1.60
2023-03-17T03:24:09.309Z,-1.60
2023-03-17T03:26:36.124Z,-1.60
2023-03-17T03:29:03.658Z,-1.60
2023-03-17T03:31:30.789Z,-1.60
2023-03-17T03:33:59.779Z,-1.70
2023-03-17T03:36:27.229Z,-1.70
2023-03-17T03:38:53.913Z,-1.70
2023-03-17T03:41:20.840Z,-1.80
2023-03-17T03:43:47.470Z,-1.70
2023-03-17T03:46:15.924Z,-1.80
2023-03-17T03:48:42.803Z,-1.80
2023-03-17T03:51:09.588Z,-1.80
2023-03-17T03:53:36.477Z,-1.80
2023-03-17T03:56:03.214Z,-1.80
2023-03-17T03:58:31.460Z,-1.80
2023-03-17T04:00:58.159Z,-1.80
2023-03-17T04:03:25.056Z,-1.80
2023-03-17T04:05:51.693Z,-1.80
2023-03-17T04:08:18.338Z,-1.80
2023-03-17T04:10:45.005Z,-1.80
2023-03-17T04:13:13.078Z,-1.70
2023-03-17T04:15:39.842Z,-1.70
2023-03-17T04:18:06.805Z,-1.70
2023-03-17T04:20:33.651Z,-1.70
2023-03-17T04:23:01.732Z,-1.70
2023-03-17T04:25:28.331Z,-1.60
2023-03-17T04:27:54.995Z,-1.60
2023-03-17T04:30:22.219Z,-1.60
2023-03-17T04:32:49.266Z,-1.60
2023-03-17T04:35:17.688Z,-1.60
2023-03-17T04:37:44.761Z,-1.60
2023-03-17T04:40:13.498Z,-1.60
2023-03-17T04:42:43.026Z,-1.60
2023-03-17T04:45:11.330Z,-1.60
2023-03-17T04:47:38.777Z,-1.60
2023-03-17T04:50:05.989Z,-1.60
2023-03-17T04:52:32.820Z,-1.60
2023-03-17T04:54:59.456Z,-1.60
2023-03-17T04:57:28.824Z,-1.60
2023-03-17T04:59:55.746Z,-1.60
2023-03-17T05:02:24.127Z,-1.60
2023-03-17T05:04:51.100Z,-1.60
2023-03-17T05:07:17.900Z,-1.60
2023-03-17T05:09:44.664Z,-1.60
2023-03-17T05:12:11.670Z,-1.70
2023-03-17T05:14:38.610Z,-1.60
2023-03-17T05:17:05.347Z,-1.70
2023-03-17T05:19:32.154Z,-1.70
2023-03-17T05:21:58.802Z,-1.70
2023-03-17T05:24:25.784Z,-1.70
2023-03-17T05:26:52.393Z,-1.70
2023-03-17T05:29:19.417Z,-1.70
2023-03-17T05:31:46.078Z,-1.70
2023-03-17T05:34:13.246Z,-1.70
2023-03-17T05:36:40.913Z,-1.60
2023-03-17T05:39:09.293Z,-1.60
2023-03-17T05:41:36.284Z,-1.60
2023-03-17T05:44:03.004Z,-1.60
2023-03-17T05:46:32.701Z,-1.60
2023-03-17T05:49:06.510Z,-1.50
2023-03-17T05:51:36.824Z,-1.50
2023-03-17T05:54:03.652Z,-1.40
2023-03-17T05:56:35.520Z,-1.30
2023-03-17T05:59:02.712Z,-1.20
2023-03-17T06:01:29.329Z,-1.20
2023-03-17T06:03:56.418Z,-1.10
2023-03-17T06:06:24.504Z,-1.00
2023-03-17T06:08:54.422Z,-0.90
2023-03-17T06:11:21.617Z,-0.80
2023-03-17T06:13:48.640Z,-0.70
2023-03-17T06:16:16.545Z,-0.60
2023-03-17T06:18:43.471Z,-0.40
2023-03-17T06:21:10.480Z,-0.30
2023-03-17T06:23:37.261Z,-0.10
2023-03-17T06:26:05.766Z,0.00
2023-03-17T06:28:32.712Z,0.10
2023-03-17T06:30:59.528Z,0.30
2023-03-17T06:33:26.265Z,0.40
2023-03-17T06:35:57.244Z,0.60
2023-03-17T06:38:24.664Z,0.80
2023-03-17T06:40:51.621Z,1.00
2023-03-17T06:43:21.887Z,1.10
2023-03-17T06:45:51.945Z,1.30
2023-03-17T06:48:18.841Z,1.50
2023-03-17T06:50:47.392Z,1.70
2023-03-17T06:53:14.256Z,1.80
2023-03-17T06:55:44.112Z,2.00
2023-03-17T06:58:10.762Z,2.10
2023-03-17T07:00:40.609Z,2.20
2023-03-17T07:03:07.904Z,2.30
2023-03-17T07:05:34.633Z,2.40
2023-03-17T07:08:01.278Z,2.40
2023-03-17T07:10:28.142Z,2.50
2023-03-17T07:12:55.077Z,2.50
2023-03-17T07:15:22.074Z,2.50
2023-03-17T07:17:48.790Z,2.60
2023-03-17T07:20:18.046Z,2.60
2023-03-17T07:22:44.684Z,2.70
2023-03-17T07:25:11.481Z,2.80
2023-03-17T07:27:38.373Z,2.90
2023-03-17T07:30:05.586Z,3.10
2023-03-17T07:32:32.553Z,3.20
2023-03-17T07:34:59.404Z,3.40
2023-03-17T07:37:26.039Z,3.50
2023-03-17T07:39:52.955Z,3.60
2023-03-17T07:42:19.968Z,3.70
2023-03-17T07:44:46.822Z,3.90
2023-03-17T07:47:13.589Z,4.00
2023-03-17T07:49:42.249Z,4.20
2023-03-17T07:52:10.157Z,4.30
2023-03-17T07:54:37.564Z,4.40
2023-03-17T07:57:04.993Z,4.60
2023-03-17T07:59:32.011Z,4.80
2023-03-17T08:02:00.408Z,4.90
2023-03-17T08:04:27.711Z,5.00
2023-03-17T08:06:54.937Z,5.20
2023-03-17T08:09:24.582Z,5.30
2023-03-17T08:11:51.631Z,5.50
2023-03-17T08:14:18.400Z,5.60
2023-03-17T08:16:45.196Z,5.70
2023-03-17T08:19:13.695Z,5.90
2023-03-17T08:21:40.708Z,6.10
2023-03-17T08:24:07.452Z,6.30
2023-03-17T08:26:34.399Z,6.50
2023-03-17T08:29:01.598Z,6.60
2023-03-17T08:31:28.798Z,6.80
2023-03-17T08:33:57.393Z,6.90
2023-03-17T08:36:24.257Z,7.10
2023-03-17T08:38:51.282Z,7.20
2023-03-17T08:41:22.544Z,7.30
2023-03-17T08:43:50.641Z,7.40
2023-03-17T08:46:21.947Z,7.60
2023-03-17T08:48:49.651Z,7.70
2023-03-17T08:51:18.694Z,7.90
2023-03-17T08:53:47.745Z,8.00
2023-03-17T08:56:14.962Z,8.20
2023-03-17T08:58:43.488Z,8.20
2023-03-17T09:01:11.921Z,8.30
2023-03-17T09:03:39.519Z,8.50
2023-03-17T09:06:08.414Z,8.60
2023-03-17T09:08:37.590Z,8.80
2023-03-17T09:11:05.539Z,8.90
2023-03-17T09:13:34.587Z,9.00
2023-03-17T09:16:04.142Z,9.20
2023-03-17T09:18:32.964Z,9.30
2023-03-17T09:21:00.006Z,9.30
2023-03-17T09:23:26.796Z,9.40
2023-03-17T09:25:53.689Z,9.50
2023-03-17T09:28:20.259Z,9.60
2023-03-17T09:30:48.411Z,9.70
2023-03-17T09:33:15.711Z,9.70
2023-03-17T09:35:42.631Z,9.80
2023-03-17T09:38:09.328Z,9.90
2023-03-17T09:40:37.535Z,10.00
2023-03-17T09:43:22.622Z,10.10
2023-03-17T09:45:49.249Z,10.20
2023-03-17T09:48:36.889Z,10.30
2023-03-17T09:51:08.940Z,10.40
2023-03-17T09:53:50.031Z,10.50
2023-03-17T09:56:18.733Z,10.70
2023-03-17T09:58:59.702Z,10.80
2023-03-17T10:01:26.817Z,10.90
2023-03-17T10:03:53.587Z,11.00
2023-03-17T10:06:39.635Z,11.10
2023-03-17T10:09:27.865Z,11.20
2023-03-17T10:12:01.226Z,11.30
2023-03-17T10:14:46.141Z,11.40
2023-03-17T10:17:12.955Z,11.60
2023-03-17T10:20:00.568Z,11.70
2023-03-17T10:22:46.419Z,11.80
2023-03-17T10:25:15.005Z,11.90
2023-03-17T10:27:42.591Z,12.00
2023-03-17T10:30:19.689Z,12.20
2023-03-17T10:32:46.727Z,12.30
2023-03-17T10:35:15.485Z,12.40
2023-03-17T10:37:43.988Z,12.60
2023-03-17T10:40:28.524Z,12.70
2023-03-17T10:43:00.311Z,12.80
2023-03-17T10:45:32.418Z,13.00
2023-03-17T10:48:00.090Z,13.10
2023-03-17T10:50:28.694Z,13.20
2023-03-17T10:53:00.651Z,13.30
2023-03-17T10:55:33.866Z,13.50
2023-03-17T10:58:02.660Z,13.60
2023-03-17T11:00:33.765Z,13.70
2023-03-17T11:03:03.520Z,13.80
2023-03-17T11:05:30.164Z,13.70
2023-03-17T11:07:57.887Z,13.80
2023-03-17T11:10:26.260Z,13.90
2023-03-17T11:12:59.201Z,14.10
2023-03-17T11:15:29.486Z,14.30
2023-03-17T11:17:58.452Z,14.30
2023-03-17T11:20:25.603Z,14.40
2023-03-17T11:22:56.448Z,14.50
2023-03-17T11:25:27.566Z,14.60
2023-03-17T11:28:07.317Z,14.60
2023-03-17T11:30:36.733Z,14.70
2023-03-17T11:33:22.371Z,14.90
2023-03-17T11:35:48.999Z,15.00
2023-03-17T11:38:18.682Z,15.10
2023-03-17T11:41:04.845Z,15.30
2023-03-17T11:43:35.863Z,15.40
2023-03-17T11:46:21.518Z,15.60
2023-03-17T11:48:56.463Z,15.70
2023-03-17T11:51:30.365Z,15.70
2023-03-17T11:54:06.858Z,15.70
2023-03-17T11:56:45.513Z,15.60
2023-03-17T11:59:25.808Z,15.80
2023-03-17T12:02:02.865Z,15.90
2023-03-17T12:04:34.366Z,15.90
2023-03-17T12:07:08.706Z,15.90
2023-03-17T12:09:42.172Z,16.00
2023-03-17T12:12:10.739Z,16.10
2023-03-17T12:14:41.355Z,16.20
2023-03-17T12:17:19.897Z,16.20
2023-03-17T12:19:52.478Z,16.20
2023-03-17T12:22:26.825Z,16.30
2023-03-17T12:25:05.320Z,16.30
2023-03-17T12:27:34.554Z,16.30
2023-03-17T12:30:15.530Z,16.30
2023-03-17T12:32:47.472Z,16.30
2023-03-17T12:35:26.361Z,16.30
2023-03-17T12:37:54.362Z,16.30
2023-03-17T12:40:33.604Z,16.30
2023-03-17T12:43:07.517Z,16.20
2023-03-17T12:45:34.108Z,16.20
2023-03-17T12:48:08.252Z,16.20
2023-03-17T12:50:54.282Z,16.30
2023-03-17T12:53:24.842Z,16.30
2023-03-17T12:55:52.623Z,16.30
2023-03-17T12:58:28.860Z,16.30
2023-03-17T13:01:00.435Z,16.30
2023-03-17T13:03:30.668Z,16.30
2023-03-17T13:06:01.437Z,16.30
2023-03-17T13:08:33.620Z,16.40
2023-03-17T13:11:19.937Z,16.50
2023-03-17T13:13:46.813Z,16.60
2023-03-17T13:16:34.570Z,16.70
2023-03-17T13:19:16.145Z,16.80
2023-03-17T13:21:50.776Z,16.90
2023-03-17T13:24:17.971Z,16.90
2023-03-17T13:26:59.988Z,17.00
2023-03-17T13:29:38.774Z,17.00
2023-03-17T13:32:24.814Z,17.10
2023-03-17T13:35:01.584Z,17.10
2023-03-17T13:37:43.454Z,17.20
2023-03-17T13:40:19.441Z,17.20
2023-03-17T13:43:04.675Z,17.20
2023-03-17T13:45:35.745Z,17.20
2023-03-17T13:48:24.315Z,17.30
2023-03-17T13:51:00.891Z,17.30
2023-03-17T13:53:29.130Z,17.30
2023-03-17T13:56:09.492Z,17.30
2023-03-17T13:58:49.042Z,17.30
2023-03-17T14:01:16.002Z,17.20
2023-03-17T14:03:47.617Z,17.20
2023-03-17T14:06:15.012Z,17.20
2023-03-17T14:08:47.426Z,17.20
2023-03-17T14:11:19.193Z,17.30
2023-03-17T14:14:04.619Z,17.20
2023-03-17T14:16:43.545Z,17.20
2023-03-17T14:19:19.840Z,17.30
2023-03-17T14:21:47.218Z,17.30
2023-03-17T14:24:24.257Z,17.30
2023-03-17T14:26:52.490Z,17.30
2023-03-17T14:29:21.387Z,17.30
2023-03-17T14:31:54.388Z,17.30
2023-03-17T14:34:22.107Z,17.20
2023-03-17T14:36:52.026Z,17.20
2023-03-17T14:39:23.861Z,17.10
2023-03-17T14:41:57.408Z,17.20
2023-03-17T14:44:24.357Z,17.00
2023-03-17T14:46:51.420Z,17.10
2023-03-17T14:49:20.132Z,17.10
2023-03-17T14:51:51.277Z,17.20
2023-03-17T14:54:28.774Z,17.20
2023-03-17T14:57:02.300Z,17.20
2023-03-17T14:59:28.957Z,17.20
2023-03-17T15:01:56.904Z,17.10
2023-03-17T15:04:25.655Z,17.10
2023-03-17T15:06:54.973Z,17.10
2023-03-17T15:09:27.843Z,17.10
2023-03-17T15:12:04.792Z,17.00
2023-03-17T15:14:37.474Z,17.00
2023-03-17T15:17:05.690Z,16.90
2023-03-17T15:19:52.515Z,16.90
2023-03-17T15:22:39.802Z,16.90
2023-03-17T15:25:23.233Z,16.80
2023-03-17T15:27:51.242Z,16.80
2023-03-17T15:30:18.591Z,16.70
2023-03-17T15:32:51.486Z,16.60
2023-03-17T15:35:18.415Z,16.60
2023-03-17T15:37:45.793Z,16.40
2023-03-17T15:40:13.864Z,16.40
2023-03-17T15:42:40.673Z,16.30
2023-03-17T15:45:07.978Z,16.30
2023-03-17T15:47:37.055Z,16.20
2023-03-17T15:50:13.574Z,16.20
2023-03-17T15:52:40.815Z,16.10
2023-03-17T15:55:14.888Z,16.00
2023-03-17T15:57:44.328Z,16.00
2023-03-17T16:00:17.693Z,15.90
2023-03-17T16:02:44.945Z,15.80
2023-03-17T16:05:34.460Z,15.80
2023-03-17T16:08:01.853Z,15.70
2023-03-17T16:10:32.441Z,15.70
2023-03-17T16:12:59.518Z,15.60
2023-03-17T16:15:27.630Z,15.60
2023-03-17T16:17:55.870Z,15.50
2023-03-17T16:20:28.876Z,15.40
2023-03-17T16:22:57.125Z,15.30
2023-03-17T16:25:29.277Z,15.20
2023-03-17T16:27:57.376Z,15.20
2023-03-17T16:30:27.930Z,15.10
2023-03-17T16:32:58.015Z,15.10
2023-03-17T16:35:25.638Z,15.00
2023-03-17T16:37:54.873Z,14.90
2023-03-17T16:40:21.685Z,14.90
2023-03-17T16:42:49.624Z,14.80
2023-03-17T16:45:22.108Z,14.70
2023-03-17T16:47:49.756Z,14.60
2023-03-17T16:50:18.925Z,14.60
2023-03-17T16:52:45.800Z,14.50
2023-03-17T16:55:13.022Z,14.50
2023-03-17T16:57:41.358Z,14.40
2023-03-17T17:00:09.368Z,14.30
2023-03-17T17:02:36.318Z,14.20
2023-03-17T17:05:06.088Z,14.10
2023-03-17T17:07:32.808Z,14.00
2023-03-17T17:09:59.422Z,13.90
2023-03-17T17:12:26.238Z,13.80
2023-03-17T17:14:52.924Z,13.60
2023-03-17T17:17:22.224Z,13.50
2023-03-17T17:19:49.189Z,13.30
2023-03-17T17:22:17.153Z,13.20
2023-03-17T17:24:43.837Z,13.00
2023-03-17T17:27:10.618Z,12.80
2023-03-17T17:29:37.605Z,12.60
2023-03-17T17:32:05.032Z,12.50
2023-03-17T17:34:31.635Z,12.30
2023-03-17T17:36:58.620Z,12.10
2023-03-17T17:39:25.309Z,12.00
2023-03-17T17:41:52.108Z,11.80
2023-03-17T17:44:19.337Z,11.60
2023-03-17T17:46:46.351Z,11.50
2023-03-17T17:49:12.968Z,11.30
2023-03-17T17:51:39.608Z,11.20
2023-03-17T17:54:06.287Z,11.00
2023-03-17T17:56:36.660Z,10.80
2023-03-17T17:59:03.561Z,10.70
2023-03-17T18:01:30.264Z,10.60
2023-03-17T18:04:00.088Z,10.50
2023-03-17T18:06:27.003Z,10.30
2023-03-17T18:08:55.123Z,10.20
2023-03-17T18:11:22.149Z,10.10
2023-03-17T18:13:49.005Z,10.00
2023-03-17T18:16:16.463Z,9.80
2023-03-17T18:18:45.806Z,9.70
2023-03-17T18:21:13.437Z,9.60
2023-03-17T18:23:46.750Z,9.50
2023-03-17T18:26:14.965Z,9.30
2023-03-17T18:28:42.308Z,9.20
2023-03-17T18:31:11.409Z,9.10
2023-03-17T18:33:39.342Z,9.00
2023-03-17T18:36:06.664Z,9.00
2023-03-17T18:38:33.886Z,8.80
2023-03-17T18:41:01.362Z,8.80
2023-03-17T18:43:28.237Z,8.70
2023-03-17T18:45:54.885Z,8.60
2023-03-17T18:48:21.678Z,8.60
2023-03-17T18:50:48.902Z,8.60
2023-03-17T18:53:15.678Z,8.50
2023-03-17T18:55:42.536Z,8.50
2023-03-17T18:58:09.133Z,8.50
2023-03-17T19:00:36.186Z,8.50
2023-03-17T19:03:02.851Z,8.50
2023-03-17T19:05:29.546Z,8.40
2023-03-17T19:07:56.187Z,8.40
2023-03-17T19:10:22.797Z,8.40
2023-03-17T19:12:50.615Z,8.30
2023-03-17T19:15:17.717Z,8.30
2023-03-17T19:17:44.400Z,8.30
2023-03-17T19:20:12.286Z,8.30
2023-03-17T19:22:40.185Z,8.30
2023-03-17T19:25:08.607Z,8.20
2023-03-17T19:27:35.538Z,8.10
2023-03-17T19:30:02.177Z,8.10
2023-03-17T19:32:28.821Z,8.10
2023-03-17T19:34:55.465Z,8.00
2023-03-17T19:37:22.566Z,8.00
2023-03-17T19:39:49.289Z,7.90
2023-03-17T19:42:16.402Z,7.90
2023-03-17T19:44:43.342Z,7.80
2023-03-17T19:47:10.370Z,7.80
2023-03-17T19:49:37.791Z,7.80
2023-03-17T19:52:05.436Z,7.70
2023-03-17T19:54:32.266Z,7.60
2023-03-17T19:56:58.939Z,7.60
2023-03-17T19:59:25.587Z,7.60
2023-03-17T20:01:52.393Z,7.50
2023-03-17T20:04:20.870Z,7.40
2023-03-17T20:06:47.759Z,7.40
2023-03-17T20:09:15.019Z,7.30
2023-03-17T20:11:41.732Z,7.30
2023-03-17T20:14:08.385Z,7.20
2023-03-17T20:16:36.676Z,7.10
2023-03-17T20:19:04.895Z,7.10
2023-03-17T20:21:31.633Z,7.00
2023-03-17T20:23:58.524Z,7.00
2023-03-17T20:26:25.563Z,6.90
2023-03-17T20:28:53.828Z,6.90
2023-03-17T20:31:20.735Z,6.80
2023-03-17T20:33:47.536Z,6.80
2023-03-17T20:36:14.461Z,6.80
2023-03-17T20:38:43.537Z,6.70
2023-03-17T20:41:14.740Z,6.60
2023-03-17T20:43:41.784Z,6.60
2023-03-17T20:46:10.736Z,6.50
2023-03-17T20:48:37.673Z,6.50
2023-03-17T20:51:06.335Z,6.40
2023-03-17T20:53:34.322Z,6.30
2023-03-17T20:56:00.982Z,6.30
2023-03-17T20:58:27.867Z,6.20
2023-03-17T21:00:54.686Z,6.10
2023-03-17T21:03:21.526Z,6.10
2023-03-17T21:05:48.315Z,6.00
2023-03-17T21:08:15.043Z,6.00
2023-03-17T21:10:41.761Z,5.90
2023-03-17T21:13:08.922Z,5.80
2023-03-17T21:15:37.027Z,5.80
2023-03-17T21:18:04.021Z,5.80
2023-03-17T21:20:31.409Z,5.70
2023-03-17T21:22:59.573Z,5.60
2023-03-17T21:25:27.971Z,5.60
2023-03-17T21:27:54.654Z,5.50
2023-03-17T21:30:21.518Z,5.50
2023-03-17T21:32:48.131Z,5.40
2023-03-17T21:35:14.829Z,5.40
2023-03-17T21:37:41.509Z,5.30
2023-03-17T21:40:08.457Z,5.30
2023-03-17T21:42:35.072Z,5.20
2023-03-17T21:45:01.776Z,5.20
2023-03-17T21:47:29.999Z,5.10
2023-03-17T21:49:57.874Z,5.10
2023-03-17T21:52:25.111Z,5.00
2023-03-17T21:54:51.786Z,5.00
2023-03-17T21:57:18.735Z,5.00
2023-03-17T21:59:48.016Z,5.00
2023-03-17T22:02:17.512Z,5.00
2023-03-17T22:04:44.764Z,4.90
2023-03-17T22:07:12.105Z,4.80
2023-03-17T22:09:39.322Z,4.80
2023-03-17T22:12:07.002Z,4.80
2023-03-17T22:14:35.730Z,4.70
2023-03-17T22:17:05.161Z,4.60
2023-03-17T22:19:32.928Z,4.60
2023-03-17T22:21:59.753Z,4.50
2023-03-17T22:24:26.763Z,4.50
2023-03-17T22:26:53.454Z,4.40
2023-03-17T22:29:20.243Z,4.40
2023-03-17T22:31:47.293Z,4.30
2023-03-17T22:34:14.077Z,4.30
2023-03-17T22:36:41.177Z,4.30
2023-03-17T22:39:10.885Z,4.20
2023-03-17T22:41:38.462Z,4.20
2023-03-17T22:44:06.610Z,4.20
2023-03-17T22:46:33.376Z,4.20
2023-03-17T22:48:59.993Z,4.10
2023-03-17T22:51:28.822Z,4.10
2023-03-17T22:53:55.668Z,4.10
2023-03-17T22:56:22.422Z,4.00
2023-03-17T22:58:49.306Z,4.00
2023-03-17T23:01:17.982Z,3.90
2023-03-17T23:03:46.076Z,3.90
2023-03-17T23:06:13.262Z,3.80
2023-03-17T23:08:40.819Z,3.80
2023-03-17T23:11:08.791Z,3.70
2023-03-17T23:13:35.520Z,3.60
2023-03-17T23:16:04.976Z,3.60
2023-03-17T23:18:31.836Z,3.60
2023-03-17T23:20:59.634Z,3.50
2023-03-17T23:23:27.330Z,3.50
2023-03-17T23:25:54.157Z,3.40
2023-03-17T23:28:21.101Z,3.40
2023-03-17T23:30:47.828Z,3.30
2023-03-17T23:33:15.391Z,3.30
2023-03-17T23:35:42.317Z,3.30
2023-03-17T23:38:09.525Z,3.30
2023-03-17T23:40:36.141Z,3.20
2023-03-17T23:43:05.743Z,3.20
2023-03-17T23:45:33.690Z,3.10
2023-03-17T23:48:00.956Z,3.10
2023-03-17T23:50:27.753Z,3.10
2023-03-17T23:52:54.372Z,3.00
2023-03-17T23:55:21.058Z,3.00
2023-03-17T23:57:48.017Z,3.00
